createdAt,value
2019-01-22T00:00:26.206Z,-4.20
2019-01-22T00:02:28.067Z,-4.20
2019-01-22T00:04:29.430Z,-4.20
2019-01-22T00:09:53.828Z,-4.10
2019-01-22T00:11:55.169Z,-4.10
2019-01-22T00:13:56.560Z,-4.10
2019-01-22T00:15:57.916Z,-4.20
2019-01-22T00:17:59.272Z,-4.20
2019-01-22T00:20:00.634Z,-4.20
2019-01-22T00:22:02.099Z,-4.20
2019-01-22T00:24:03.875Z,-4.20
2019-01-22T00:26:05.214Z,-4.20
2019-01-22T00:28:06.586Z,-4.20
2019-01-22T00:30:13.441Z,-4.30
2019-01-22T00:32:14.807Z,-4.20
2019-01-22T00:34:16.466Z,-4.20
2019-01-22T00:36:18.101Z,-4.20
2019-01-22T00:38:19.488Z,-4.30
2019-01-22T00:40:20.825Z,-4.30
2019-01-22T00:42:22.239Z,-4.30
2019-01-22T00:44:24.853Z,-4.30
2019-01-22T00:46:26.221Z,-4.30
2019-01-22T00:48:27.569Z,-4.30
2019-01-22T00:50:28.933Z,-4.30
2019-01-22T00:52:30.793Z,-4.20
2019-01-22T00:54:32.170Z,-4.20
2019-01-22T00:56:33.583Z,-4.30
2019-01-22T00:58:34.951Z,-4.30
2019-01-22T01:00:36.307Z,-4.30
2019-01-22T01:02:37.665Z,-4.30
2019-01-22T01:04:39.221Z,-4.30
2019-01-22T01:06:40.569Z,-4.30
2019-01-22T01:08:42.222Z,-4.30
2019-01-22T01:10:43.862Z,-4.30
2019-01-22T01:12:45.417Z,-4.30
2019-01-22T01:14:46.881Z,-4.30
2019-01-22T01:16:48.239Z,-4.30
2019-01-22T01:18:49.572Z,-4.30
2019-01-22T01:20:50.964Z,-4.30
2019-01-22T01:22:52.339Z,-4.30
2019-01-22T01:24:53.707Z,-4.30
2019-01-22T01:26:55.488Z,-4.30
2019-01-22T01:28:57.345Z,-4.40
2019-01-22T01:30:58.676Z,-4.40
2019-01-22T01:33:00.036Z,-4.40
2019-01-22T01:35:01.477Z,-4.50
2019-01-22T01:37:03.112Z,-4.50
2019-01-22T01:39:04.487Z,-4.60
2019-01-22T01:41:06.041Z,-4.60
2019-01-22T01:43:07.385Z,-4.60
2019-01-22T01:45:09.030Z,-4.60
2019-01-22T01:47:10.493Z,-4.60
2019-01-22T01:49:11.850Z,-4.70
2019-01-22T01:51:13.222Z,-4.70
2019-01-22T01:53:14.592Z,-4.70
2019-01-22T01:55:16.832Z,-4.70
2019-01-22T01:57:18.213Z,-4.80
2019-01-22T01:59:19.574Z,-4.80
2019-01-22T02:01:22.207Z,-4.90
2019-01-22T02:03:23.572Z,-4.90
2019-01-22T02:05:24.966Z,-4.90
2019-01-22T02:07:26.376Z,-4.90
2019-01-22T02:09:27.752Z,-5.00
2019-01-22T02:11:29.103Z,-5.00
2019-01-22T02:13:31.255Z,-5.10
2019-01-22T02:15:38.359Z,-5.10
2019-01-22T02:17:53.962Z,-5.10
2019-01-22T02:20:19.296Z,-5.20
2019-01-22T02:22:44.437Z,-5.10
2019-01-22T02:24:54.093Z,-5.10
2019-01-22T02:27:09.651Z,-5.20
2019-01-22T02:29:25.710Z,-5.20
2019-01-22T02:31:50.695Z,-5.20
2019-01-22T02:34:01.063Z,-5.20
2019-01-22T02:36:43.366Z,-5.20
2019-01-22T02:39:02.102Z,-5.20
2019-01-22T02:41:14.716Z,-5.30
2019-01-22T02:43:24.690Z,-5.30
2019-01-22T02:46:09.354Z,-5.30
2019-01-22T02:48:19.632Z,-5.30
2019-01-22T02:50:42.067Z,-5.30
2019-01-22T02:53:06.840Z,-5.40
2019-01-22T02:55:13.911Z,-5.40
2019-01-22T02:58:08.062Z,-5.40
2019-01-22T03:00:17.836Z,-5.40
2019-01-22T03:02:44.445Z,-5.50
2019-01-22T03:05:06.602Z,-5.50
2019-01-22T03:07:35.254Z,-5.50
2019-01-22T03:10:20.148Z,-5.50
2019-01-22T03:12:57.093Z,-5.50
2019-01-22T03:15:39.074Z,-5.60
2019-01-22T03:17:58.048Z,-5.60
2019-01-22T03:20:14.035Z,-5.60
2019-01-22T03:22:56.567Z,-5.70
2019-01-22T03:25:30.575Z,-5.70
2019-01-22T03:27:52.866Z,-5.80
2019-01-22T03:30:20.932Z,-5.80
2019-01-22T03:33:22.080Z,-5.80
2019-01-22T03:36:05.115Z,-5.80
2019-01-22T03:39:06.154Z,-5.80
2019-01-22T03:41:49.198Z,-5.80
2019-01-22T03:44:50.258Z,-5.70
2019-01-22T03:47:33.295Z,-5.70
2019-01-22T03:50:16.024Z,-5.70
2019-01-22T03:52:59.513Z,-5.80
2019-01-22T03:56:00.513Z,-5.70
2019-01-22T03:58:21.811Z,-5.80
2019-01-22T04:00:43.112Z,-5.80
2019-01-22T04:03:04.480Z,-5.80
2019-01-22T04:05:25.783Z,-5.90
2019-01-22T04:07:47.050Z,-5.80
2019-01-22T04:10:30.243Z,-5.90
2019-01-22T04:12:51.518Z,-5.90
2019-01-22T04:15:34.593Z,-6.00
2019-01-22T04:17:55.993Z,-6.00
2019-01-22T04:20:17.353Z,-6.00
2019-01-22T04:22:38.612Z,-6.10
2019-01-22T04:25:40.260Z,-6.10
2019-01-22T04:28:23.293Z,-6.10
2019-01-22T04:34:38.407Z,-6.20
2019-01-22T04:37:21.608Z,-6.20
2019-01-22T04:40:22.634Z,-6.30
2019-01-22T04:43:05.710Z,-6.30
2019-01-22T04:45:48.752Z,-6.40
2019-01-22T04:48:32.146Z,-6.40
2019-01-22T04:51:15.173Z,-6.40
2019-01-22T04:53:46.726Z,-6.40
2019-01-22T04:55:56.745Z,-6.40
2019-01-22T04:58:04.355Z,-6.50
2019-01-22T05:00:48.253Z,-6.60
2019-01-22T05:02:58.341Z,-6.50
2019-01-22T05:05:25.108Z,-6.60
2019-01-22T05:07:41.456Z,-6.60
2019-01-22T05:10:00.519Z,-6.60
2019-01-22T05:12:22.212Z,-6.60
2019-01-22T05:14:49.926Z,-6.60
2019-01-22T05:17:02.728Z,-6.60
2019-01-22T05:19:15.763Z,-6.60
2019-01-22T05:21:44.198Z,-6.70
2019-01-22T05:24:18.789Z,-6.70
2019-01-22T05:26:50.163Z,-6.80
2019-01-22T05:29:25.713Z,-6.80
2019-01-22T05:31:45.185Z,-6.80
2019-01-22T05:34:13.354Z,-6.80
2019-01-22T05:36:48.902Z,-6.80
2019-01-22T05:39:13.503Z,-6.80
2019-01-22T05:41:44.364Z,-6.80
2019-01-22T05:44:24.803Z,-6.80
2019-01-22T05:47:16.399Z,-6.90
2019-01-22T05:49:55.206Z,-6.90
2019-01-22T05:52:08.507Z,-6.90
2019-01-22T05:54:25.125Z,-6.90
2019-01-22T05:56:33.215Z,-7.00
2019-01-22T05:59:10.419Z,-7.00
2019-01-22T06:01:17.507Z,-7.00
2019-01-22T06:03:27.633Z,-7.10
2019-01-22T06:06:06.395Z,-7.10
2019-01-22T06:08:35.173Z,-7.10
2019-01-22T06:10:57.334Z,-7.10
2019-01-22T06:13:13.617Z,-7.10
2019-01-22T06:15:44.695Z,-7.20
2019-01-22T06:18:22.009Z,-7.20
2019-01-22T06:20:49.374Z,-7.20
2019-01-22T06:23:25.395Z,-7.20
2019-01-22T06:25:59.535Z,-7.20
2019-01-22T06:28:27.570Z,-7.20
2019-01-22T06:30:57.044Z,-7.30
2019-01-22T06:33:04.193Z,-7.30
2019-01-22T06:35:18.538Z,-7.30
2019-01-22T06:37:37.461Z,-7.30
2019-01-22T06:39:44.597Z,-7.40
2019-01-22T06:42:20.971Z,-7.30
2019-01-22T06:45:10.573Z,-7.40
2019-01-22T06:47:26.711Z,-7.40
2019-01-22T06:49:39.561Z,-7.40
2019-01-22T06:52:13.016Z,-7.40
2019-01-22T06:54:26.080Z,-7.40
2019-01-22T06:56:36.393Z,-7.40
2019-01-22T06:58:58.877Z,-7.40
2019-01-22T07:01:23.320Z,-7.40
2019-01-22T07:03:42.499Z,-7.40
2019-01-22T07:06:17.043Z,-7.50
2019-01-22T07:09:08.809Z,-7.50
2019-01-22T07:11:33.646Z,-7.50
2019-01-22T07:14:18.913Z,-7.50
2019-01-22T07:16:29.351Z,-7.50
2019-01-22T07:18:39.619Z,-7.50
2019-01-22T07:20:58.221Z,-7.60
2019-01-22T07:23:23.075Z,-7.60
2019-01-22T07:26:02.071Z,-7.60
2019-01-22T07:28:38.903Z,-7.60
2019-01-22T07:31:06.662Z,-7.60
2019-01-22T07:33:33.362Z,-7.60
2019-01-22T07:35:52.495Z,-7.60
2019-01-22T07:37:59.709Z,-7.60
2019-01-22T07:40:30.904Z,-7.60
2019-01-22T07:42:50.338Z,-7.60
2019-01-22T07:45:12.635Z,-7.50
2019-01-22T07:47:22.294Z,-7.50
2019-01-22T07:50:09.127Z,-7.50
2019-01-22T07:52:31.429Z,-7.50
2019-01-22T07:55:06.178Z,-7.50
2019-01-22T07:57:47.723Z,-7.50
2019-01-22T08:00:00.939Z,-7.40
2019-01-22T08:02:24.304Z,-7.40
2019-01-22T08:05:10.904Z,-7.40
2019-01-22T08:07:25.869Z,-7.30
2019-01-22T08:09:56.902Z,-7.30
2019-01-22T08:12:26.759Z,-7.20
2019-01-22T08:14:48.703Z,-7.20
2019-01-22T08:17:19.549Z,-7.10
2019-01-22T08:19:47.372Z,-7.10
2019-01-22T08:22:29.763Z,-7.00
2019-01-22T08:25:01.068Z,-6.90
2019-01-22T08:27:20.298Z,-6.80
2019-01-22T08:29:41.907Z,-6.80
2019-01-22T08:31:57.848Z,-6.70
2019-01-22T08:34:50.946Z,-6.60
2019-01-22T08:37:06.980Z,-6.60
2019-01-22T08:39:23.501Z,-6.40
2019-01-22T08:42:02.042Z,-6.40
2019-01-22T08:44:30.273Z,-6.20
2019-01-22T08:46:37.375Z,-6.10
2019-01-22T08:48:55.986Z,-6.00
2019-01-22T08:51:27.261Z,-5.90
2019-01-22T08:53:37.074Z,-5.80
2019-01-22T08:56:14.163Z,-5.80
2019-01-22T08:58:35.919Z,-5.70
2019-01-22T09:00:55.349Z,-5.70
2019-01-22T09:03:08.261Z,-5.70
2019-01-22T09:05:24.575Z,-5.60
2019-01-22T09:07:43.856Z,-5.50
2019-01-22T09:10:12.724Z,-5.40
2019-01-22T09:12:19.831Z,-5.40
2019-01-22T09:14:39.329Z,-5.40
2019-01-22T09:17:09.102Z,-5.40
2019-01-22T09:19:28.418Z,-5.30
2019-01-22T09:22:00.079Z,-5.10
2019-01-22T09:24:07.154Z,-5.00
2019-01-22T09:26:14.414Z,-4.90
2019-01-22T09:28:38.586Z,-4.70
2019-01-22T09:30:51.701Z,-4.70
2019-01-22T09:33:10.935Z,-4.60
2019-01-22T09:35:36.086Z,-4.40
2019-01-22T09:37:39.156Z,-4.30
2019-01-22T09:39:40.550Z,-4.20
2019-01-22T09:41:41.922Z,-4.10
2019-01-22T09:43:43.509Z,-4.00
2019-01-22T09:45:44.879Z,-3.90
2019-01-22T09:47:46.345Z,-3.80
2019-01-22T09:49:47.842Z,-3.80
2019-01-22T09:51:49.304Z,-3.70
2019-01-22T09:53:50.676Z,-3.60
2019-01-22T09:55:52.074Z,-3.50
2019-01-22T09:57:53.428Z,-3.40
2019-01-22T09:59:54.833Z,-3.40
2019-01-22T10:01:56.202Z,-3.30
2019-01-22T10:04:03.389Z,-3.20
2019-01-22T10:06:00.956Z,-3.10
2019-01-22T10:08:02.316Z,-3.10
2019-01-22T10:10:15.088Z,-2.90
2019-01-22T10:12:16.454Z,-2.80
2019-01-22T10:14:17.806Z,-2.60
2019-01-22T10:16:19.435Z,-2.50
2019-01-22T10:18:20.829Z,-2.50
2019-01-22T10:20:22.792Z,-2.40
2019-01-22T10:22:24.169Z,-2.30
2019-01-22T10:24:25.562Z,-2.20
2019-01-22T10:26:26.968Z,-2.10
2019-01-22T10:28:28.341Z,-2.00
2019-01-22T10:30:29.750Z,-1.90
2019-01-22T10:32:31.124Z,-1.80
2019-01-22T10:34:32.545Z,-1.70
2019-01-22T10:36:34.091Z,-1.60
2019-01-22T10:38:35.458Z,-1.50
2019-01-22T10:40:36.833Z,-1.50
2019-01-22T10:42:38.237Z,-1.40
2019-01-22T10:44:39.681Z,-1.30
2019-01-22T10:46:41.051Z,-1.20
2019-01-22T10:48:42.449Z,-1.20
2019-01-22T10:50:43.811Z,-1.10
2019-01-22T10:52:45.177Z,-1.10
2019-01-22T10:54:46.568Z,-1.00
2019-01-22T10:56:47.971Z,-0.90
2019-01-22T10:58:49.338Z,-1.00
2019-01-22T11:00:50.741Z,-0.90
2019-01-22T11:02:52.198Z,-0.80
2019-01-22T11:04:53.767Z,-0.80
2019-01-22T11:06:55.162Z,-0.70
2019-01-22T11:08:56.534Z,-0.60
2019-01-22T11:10:57.951Z,-0.50
2019-01-22T11:12:59.361Z,-0.40
2019-01-22T11:15:02.853Z,-0.40
2019-01-22T11:17:04.257Z,-0.30
2019-01-22T11:19:05.660Z,-0.30
2019-01-22T11:21:07.025Z,-0.20
2019-01-22T11:23:08.380Z,-0.20
2019-01-22T11:25:14.588Z,-0.10
2019-01-22T11:27:15.952Z,0.00
2019-01-22T11:29:17.326Z,0.10
2019-01-22T11:31:18.723Z,0.10
2019-01-22T11:33:20.095Z,0.20
2019-01-22T11:35:23.567Z,0.20
2019-01-22T11:37:25.183Z,0.30
2019-01-22T11:39:26.549Z,0.30
2019-01-22T11:41:28.015Z,0.30
2019-01-22T11:43:29.442Z,0.40
2019-01-22T11:45:30.804Z,0.50
2019-01-22T11:47:32.270Z,0.60
2019-01-22T11:49:33.985Z,0.60
2019-01-22T11:51:37.249Z,0.70
2019-01-22T11:53:38.674Z,0.70
2019-01-22T11:55:40.182Z,0.80
2019-01-22T11:57:41.556Z,0.80
2019-01-22T11:59:43.215Z,0.80
2019-01-22T12:01:44.624Z,0.70
2019-01-22T12:03:46.194Z,0.70
2019-01-22T12:05:47.661Z,0.80
2019-01-22T12:07:49.079Z,0.90
2019-01-22T12:09:50.548Z,1.00
2019-01-22T12:11:51.954Z,1.10
2019-01-22T12:13:55.256Z,1.10
2019-01-22T12:15:56.761Z,1.20
2019-01-22T12:17:58.237Z,1.30
2019-01-22T12:20:01.542Z,1.30
2019-01-22T12:22:02.981Z,1.30
2019-01-22T12:24:04.471Z,1.30
2019-01-22T12:26:05.837Z,1.40
2019-01-22T12:28:07.339Z,1.40
2019-01-22T12:30:26.275Z,1.50
2019-01-22T12:32:27.853Z,1.50
2019-01-22T12:34:29.226Z,1.50
2019-01-22T12:36:30.632Z,1.50
2019-01-22T12:38:31.995Z,1.50
2019-01-22T12:40:33.510Z,1.60
2019-01-22T12:42:35.012Z,1.60
2019-01-22T12:44:36.472Z,1.60
2019-01-22T12:46:37.862Z,1.60
2019-01-22T12:48:39.289Z,1.60
2019-01-22T12:50:40.883Z,1.60
2019-01-22T12:52:42.251Z,1.60
2019-01-22T12:54:43.660Z,1.60
2019-01-22T12:56:46.067Z,1.60
2019-01-22T12:58:47.463Z,1.70
2019-01-22T13:00:48.854Z,1.70
2019-01-22T13:02:50.418Z,1.70
2019-01-22T13:04:51.841Z,1.70
2019-01-22T13:06:53.203Z,1.80
2019-01-22T13:08:54.643Z,1.80
2019-01-22T13:10:56.008Z,1.70
2019-01-22T13:12:57.478Z,1.80
2019-01-22T13:14:58.904Z,1.80
2019-01-22T13:17:00.276Z,1.90
2019-01-22T13:19:01.634Z,1.80
2019-01-22T13:21:03.304Z,1.70
2019-01-22T13:23:04.774Z,1.70
2019-01-22T13:25:09.442Z,1.70
2019-01-22T13:27:10.875Z,1.70
2019-01-22T13:29:12.336Z,1.70
2019-01-22T13:31:13.763Z,1.70
2019-01-22T13:33:15.193Z,1.80
2019-01-22T13:35:16.841Z,1.90
2019-01-22T13:37:18.200Z,1.90
2019-01-22T13:39:19.579Z,2.00
2019-01-22T13:41:21.079Z,1.90
2019-01-22T13:43:22.454Z,1.90
2019-01-22T13:45:33.183Z,1.90
2019-01-22T13:47:34.580Z,1.90
2019-01-22T13:49:35.966Z,1.80
2019-01-22T13:51:37.378Z,1.70
2019-01-22T13:53:38.856Z,1.60
2019-01-22T13:55:40.406Z,1.40
2019-01-22T13:57:41.820Z,1.50
2019-01-22T13:59:43.195Z,1.50
2019-01-22T14:01:44.566Z,1.50
2019-01-22T14:03:46.020Z,1.50
2019-01-22T14:05:47.410Z,1.50
2019-01-22T14:07:48.884Z,1.60
2019-01-22T14:09:50.372Z,1.60
2019-01-22T14:11:51.750Z,1.60
2019-01-22T14:13:53.128Z,1.60
2019-01-22T14:15:54.578Z,1.40
2019-01-22T14:17:55.960Z,1.40
2019-01-22T14:19:57.321Z,1.30
2019-01-22T14:21:59.340Z,1.20
2019-01-22T14:24:00.709Z,1.20
2019-01-22T14:26:02.240Z,1.20
2019-01-22T14:28:03.877Z,1.10
2019-01-22T14:30:11.135Z,1.20
2019-01-22T14:32:12.503Z,1.10
2019-01-22T14:34:13.880Z,1.20
2019-01-22T14:36:17.217Z,1.20
2019-01-22T14:38:18.587Z,1.20
2019-01-22T14:40:20.423Z,1.10
2019-01-22T14:42:21.891Z,1.00
2019-01-22T14:44:23.258Z,0.90
2019-01-22T14:46:24.688Z,0.90
2019-01-22T14:48:26.055Z,0.80
2019-01-22T14:50:30.632Z,0.80
2019-01-22T14:52:32.264Z,0.70
2019-01-22T14:54:33.699Z,0.70
2019-01-22T14:56:35.082Z,0.60
2019-01-22T14:58:36.451Z,0.60
2019-01-22T15:00:37.879Z,0.60
2019-01-22T15:02:39.348Z,0.50
2019-01-22T15:04:40.717Z,0.40
2019-01-22T15:06:42.141Z,0.40
2019-01-22T15:08:43.508Z,0.30
2019-01-22T15:10:44.885Z,0.20
2019-01-22T15:12:53.350Z,0.10
2019-01-22T15:14:54.711Z,0.10
2019-01-22T15:16:56.126Z,0.00
2019-01-22T15:18:57.533Z,-0.10
2019-01-22T15:20:58.904Z,-0.20
2019-01-22T15:23:00.433Z,-0.20
2019-01-22T15:25:01.801Z,-0.30
2019-01-22T15:27:03.269Z,-0.40
2019-01-22T15:29:04.792Z,-0.40
2019-01-22T15:31:06.153Z,-0.40
2019-01-22T15:33:07.513Z,-0.50
2019-01-22T15:35:10.507Z,-0.50
2019-01-22T15:37:11.874Z,-0.60
2019-01-22T15:39:13.244Z,-0.70
2019-01-22T15:41:14.676Z,-0.80
2019-01-22T15:43:16.039Z,-0.90
2019-01-22T15:45:17.801Z,-0.90
2019-01-22T15:47:19.233Z,-0.90
2019-01-22T15:49:20.591Z,-1.00
2019-01-22T15:51:22.061Z,-1.00
2019-01-22T15:53:23.485Z,-1.10
2019-01-22T15:55:30.927Z,-1.20
2019-01-22T15:57:32.292Z,-1.20
2019-01-22T15:59:33.721Z,-1.30
2019-01-22T16:01:35.183Z,-1.30
2019-01-22T16:03:36.546Z,-1.20
2019-01-22T16:05:37.957Z,-1.30
2019-01-22T16:07:39.774Z,-1.40
2019-01-22T16:09:41.249Z,-1.40
2019-01-22T16:11:42.720Z,-1.50
2019-01-22T16:13:44.200Z,-1.50
2019-01-22T16:15:45.565Z,-1.50
2019-01-22T16:17:47.633Z,-1.50
2019-01-22T16:19:49.146Z,-1.60
2019-01-22T16:21:50.513Z,-1.60
2019-01-22T16:23:52.012Z,-1.70
2019-01-22T16:25:53.447Z,-1.70
2019-01-22T16:27:54.796Z,-1.70
2019-01-22T16:29:56.171Z,-1.80
2019-01-22T16:31:57.582Z,-1.90
2019-01-22T16:33:59.025Z,-1.90
2019-01-22T16:36:00.451Z,-1.90
2019-01-22T16:38:01.815Z,-1.90
2019-01-22T16:40:08.387Z,-1.90
2019-01-22T16:42:09.823Z,-2.00
2019-01-22T16:44:11.185Z,-2.00
2019-01-22T16:46:12.551Z,-2.10
2019-01-22T16:48:13.964Z,-2.10
2019-01-22T16:50:15.428Z,-2.10
2019-01-22T16:52:16.845Z,-2.20
2019-01-22T16:54:18.205Z,-2.20
2019-01-22T16:56:19.567Z,-2.30
2019-01-22T16:58:21.284Z,-2.30
2019-01-22T17:00:26.741Z,-2.30
2019-01-22T17:02:28.110Z,-2.30
2019-01-22T17:04:29.532Z,-2.40
2019-01-22T17:06:31.002Z,-2.40
2019-01-22T17:08:32.421Z,-2.50
2019-01-22T17:10:34.056Z,-2.50
2019-01-22T17:12:35.402Z,-2.60
2019-01-22T17:14:36.836Z,-2.60
2019-01-22T17:16:38.265Z,-2.60
2019-01-22T17:18:39.729Z,-2.60
2019-01-22T17:20:47.554Z,-2.60
2019-01-22T17:22:44.413Z,-2.60
2019-01-22T17:24:45.782Z,-2.60
2019-01-22T17:26:47.145Z,-2.70
2019-01-22T17:28:48.592Z,-2.70
2019-01-22T17:30:49.954Z,-2.80
2019-01-22T17:32:55.901Z,-2.80
2019-01-22T17:34:57.966Z,-2.80
2019-01-22T17:36:59.338Z,-2.80
2019-01-22T17:39:00.804Z,-2.90
2019-01-22T17:41:02.174Z,-2.80
2019-01-22T17:43:04.033Z,-2.80
2019-01-22T17:45:07.468Z,-2.90
2019-01-22T17:47:08.831Z,-2.90
2019-01-22T17:49:10.189Z,-2.90
2019-01-22T17:51:11.691Z,-3.00
2019-01-22T17:53:13.058Z,-3.00
2019-01-22T17:55:14.428Z,-3.00
2019-01-22T17:57:15.854Z,-3.10
2019-01-22T17:59:17.238Z,-3.10
2019-01-22T18:01:18.597Z,-3.10
2019-01-22T18:03:20.351Z,-3.20
2019-01-22T18:05:22.121Z,-3.20
2019-01-22T18:07:23.487Z,-3.20
2019-01-22T18:09:24.903Z,-3.20
2019-01-22T18:11:26.278Z,-3.20
2019-01-22T18:13:27.651Z,-3.20
2019-01-22T18:15:29.136Z,-3.30
2019-01-22T18:17:30.511Z,-3.30
2019-01-22T18:19:31.870Z,-3.30
2019-01-22T18:21:33.466Z,-3.30
2019-01-22T18:23:34.834Z,-3.40
2019-01-22T18:25:36.192Z,-3.40
2019-01-22T18:27:37.620Z,-3.50
2019-01-22T18:29:39.055Z,-3.50
2019-01-22T18:31:40.422Z,-3.50
2019-01-22T18:33:41.786Z,-3.50
2019-01-22T18:35:43.191Z,-3.50
2019-01-22T18:37:44.551Z,-3.50
2019-01-22T18:39:45.991Z,-3.60
2019-01-22T18:41:47.338Z,-3.60
2019-01-22T18:43:48.719Z,-3.60
2019-01-22T18:45:50.318Z,-3.60
2019-01-22T18:47:51.676Z,-3.60
2019-01-22T18:49:53.041Z,-3.70
2019-01-22T18:51:54.464Z,-3.70
2019-01-22T18:53:55.832Z,-3.70
2019-01-22T18:55:57.254Z,-3.70
2019-01-22T18:57:58.683Z,-3.80
2019-01-22T19:00:00.037Z,-3.80
2019-01-22T19:02:01.404Z,-3.80
2019-01-22T19:04:04.021Z,-3.90
2019-01-22T19:06:05.390Z,-3.90
2019-01-22T19:08:07.006Z,-3.90
2019-01-22T19:10:16.081Z,-3.90
2019-01-22T19:12:17.447Z,-3.90
2019-01-22T19:14:18.870Z,-4.00
2019-01-22T19:16:20.356Z,-4.00
2019-01-22T19:18:21.726Z,-4.00
2019-01-22T19:20:23.087Z,-4.10
2019-01-22T19:22:24.491Z,-4.20
2019-01-22T19:24:25.850Z,-4.20
2019-01-22T19:26:27.210Z,-4.20
2019-01-22T19:28:28.627Z,-4.20
2019-01-22T19:30:30.497Z,-4.20
2019-01-22T19:32:31.852Z,-4.20
2019-01-22T19:34:33.289Z,-4.20
2019-01-22T19:36:34.647Z,-4.30
2019-01-22T19:38:36.050Z,-4.30
2019-01-22T19:40:37.563Z,-4.30
2019-01-22T19:42:39.039Z,-4.30
2019-01-22T19:44:40.393Z,-4.30
2019-01-22T19:46:41.829Z,-4.30
2019-01-22T19:48:43.195Z,-4.40
2019-01-22T19:50:44.559Z,-4.40
2019-01-22T19:52:45.979Z,-4.40
2019-01-22T19:54:47.336Z,-4.40
2019-01-22T19:56:48.763Z,-4.40
2019-01-22T19:58:50.126Z,-4.40
2019-01-22T20:00:51.488Z,-4.40
2019-01-22T20:02:53.144Z,-4.40
2019-01-22T20:04:54.510Z,-4.50
2019-01-22T20:06:55.988Z,-4.50
2019-01-22T20:08:57.421Z,-4.50
2019-01-22T20:10:58.798Z,-4.50
2019-01-22T20:13:00.162Z,-4.50
2019-01-22T20:15:01.952Z,-4.50
2019-01-22T20:17:03.389Z,-4.50
2019-01-22T20:19:04.762Z,-4.60
2019-01-22T20:21:06.188Z,-4.60
2019-01-22T20:23:07.568Z,-4.60
2019-01-22T20:25:09.216Z,-4.60
2019-01-22T20:27:10.728Z,-4.60
2019-01-22T20:29:12.190Z,-4.70
2019-01-22T20:31:14.074Z,-4.60
2019-01-22T20:33:15.441Z,-4.70
2019-01-22T20:35:16.931Z,-4.70
2019-01-22T20:37:18.356Z,-4.70
2019-01-22T20:39:19.782Z,-4.70
2019-01-22T20:41:21.141Z,-4.80
2019-01-22T20:43:22.505Z,-4.70
2019-01-22T20:45:27.561Z,-4.80
2019-01-22T20:47:28.932Z,-4.80
2019-01-22T20:49:30.307Z,-4.80
2019-01-22T20:51:31.743Z,-4.80
2019-01-22T20:53:33.092Z,-4.90
2019-01-22T20:55:34.465Z,-4.90
2019-01-22T20:57:35.885Z,-4.90
2019-01-22T20:59:37.255Z,-5.00
2019-01-22T21:01:38.922Z,-5.10
2019-01-22T21:03:40.345Z,-5.10
2019-01-22T21:05:41.707Z,-5.10
2019-01-22T21:07:43.166Z,-5.10
2019-01-22T21:09:44.936Z,-5.10
2019-01-22T21:11:46.304Z,-5.10
2019-01-22T21:13:47.671Z,-5.20
2019-01-22T21:15:49.285Z,-5.20
2019-01-22T21:17:50.653Z,-5.20
2019-01-22T21:19:52.018Z,-5.20
2019-01-22T21:21:53.448Z,-5.20
2019-01-22T21:23:54.803Z,-5.20
2019-01-22T21:25:56.172Z,-5.30
2019-01-22T21:28:01.606Z,-5.30
2019-01-22T21:30:00.854Z,-5.20
2019-01-22T21:32:04.233Z,-5.30
2019-01-22T21:34:05.652Z,-5.30
2019-01-22T21:36:07.117Z,-5.30
2019-01-22T21:38:08.841Z,-5.40
2019-01-22T21:40:13.118Z,-5.40
2019-01-22T21:42:14.475Z,-5.40
2019-01-22T21:44:15.994Z,-5.40
2019-01-22T21:46:17.367Z,-5.40
2019-01-22T21:48:18.800Z,-5.40
2019-01-22T21:50:20.376Z,-5.50
2019-01-22T21:52:21.733Z,-5.50
2019-01-22T21:54:23.160Z,-5.50
2019-01-22T21:56:24.592Z,-5.50
2019-01-22T21:58:25.953Z,-5.50
2019-01-22T22:00:27.524Z,-5.60
2019-01-22T22:02:28.934Z,-5.60
2019-01-22T22:04:30.304Z,-5.50
2019-01-22T22:06:31.671Z,-5.60
2019-01-22T22:08:33.167Z,-5.60
2019-01-22T22:10:34.725Z,-5.60
2019-01-22T22:12:36.144Z,-5.70
2019-01-22T22:14:37.606Z,-5.70
2019-01-22T22:16:38.997Z,-5.70
2019-01-22T22:18:40.398Z,-5.70
2019-01-22T22:20:42.620Z,-5.70
2019-01-22T22:22:44.389Z,-5.80
2019-01-22T22:24:45.749Z,-5.80
2019-01-22T22:26:47.142Z,-5.80
2019-01-22T22:28:48.536Z,-5.80
2019-01-22T22:30:49.897Z,-5.80
2019-01-22T22:32:51.396Z,-5.80
2019-01-22T22:34:52.766Z,-5.90
2019-01-22T22:36:54.127Z,-5.90
2019-01-22T22:38:55.732Z,-5.90
2019-01-22T22:40:57.081Z,-6.00
2019-01-22T22:42:58.450Z,-6.00
2019-01-22T22:44:59.839Z,-6.00
2019-01-22T22:47:01.213Z,-6.00
2019-01-22T22:49:02.570Z,-6.00
2019-01-22T22:51:03.966Z,-6.00
2019-01-22T22:53:05.329Z,-6.00
2019-01-22T22:55:06.791Z,-6.00
2019-01-22T22:57:08.191Z,-6.00
2019-01-22T22:59:09.554Z,-6.00
2019-01-22T23:01:16.647Z,-6.00
2019-01-22T23:03:18.017Z,-6.00
2019-01-22T23:05:19.416Z,-6.00
2019-01-22T23:07:20.819Z,-6.00
2019-01-22T23:09:22.204Z,-6.10
2019-01-22T23:11:23.573Z,-6.10
2019-01-22T23:13:24.966Z,-6.10
2019-01-22T23:15:26.341Z,-6.10
2019-01-22T23:17:27.702Z,-6.10
2019-01-22T23:19:29.100Z,-6.10
2019-01-22T23:21:30.573Z,-6.10
2019-01-22T23:23:31.977Z,-6.10
2019-01-22T23:25:33.356Z,-6.20
2019-01-22T23:27:34.726Z,-6.20
2019-01-22T23:29:36.128Z,-6.20
2019-01-22T23:31:37.493Z,-6.20
2019-01-22T23:33:38.861Z,-6.20
2019-01-22T23:35:40.760Z,-6.20
2019-01-22T23:37:42.125Z,-6.20
2019-01-22T23:39:43.487Z,-6.30
2019-01-22T23:41:44.883Z,-6.20
2019-01-22T23:43:46.281Z,-6.30
2019-01-22T23:45:47.630Z,-6.30
2019-01-22T23:47:49.018Z,-6.30
2019-01-22T23:49:50.380Z,-6.30
2019-01-22T23:51:52.448Z,-6.30
2019-01-22T23:53:53.794Z,-6.30
2019-01-22T23:55:55.144Z,-6.30
2019-01-22T23:57:56.563Z,-6.40
2019-01-22T23:59:58.146Z,-6.40
